Spring Park, Minnesota
Current Conditions -  °F | °C
As of 1:03 PM on Friday 24 Oct 2014 (Local Time) from KFCM Reporting Station
Scattered Clouds Scattered Clouds  
Wind Chill: 64°   Ceiling: Unl
Heat Index: 64°   Visibility: 10mi
Dew Point: 53°   Wind: 8mph
Humidity: 67%   Direction: 230°SW
Pressure: 29.84"   Gusts: NA
Location:  44.94°N, 93.63°W
Report Text: KFCM 241803Z 23007KT 10SM SCT024 18/12 A2984 RMK AO2 T01780117
Loading
Personal Weather Stations






























Interactive Weather Map
Tropical Storm Tracking
New forecast layout! Learn more

10-Day Weather Forecast

Advertisements
Track Severe Weather on mobile